createdAt,value
2023-03-14T00:02:50.104Z,6.64
2023-03-14T00:06:25.131Z,6.91
2023-03-14T00:10:01.722Z,7.11
2023-03-14T00:13:54.184Z,7.21
2023-03-14T00:25:44.764Z,7.38
2023-03-14T00:29:32.181Z,7.49
2023-03-14T00:33:17.944Z,7.46
2023-03-14T00:36:57.981Z,7.49
2023-03-14T00:41:27.427Z,7.39
2023-03-14T00:49:03.921Z,7.56
2023-03-14T00:52:39.512Z,7.43
2023-03-14T00:56:22.268Z,7.40
2023-03-14T01:08:15.171Z,7.47
2023-03-14T01:11:53.532Z,7.47
2023-03-14T01:15:29.111Z,7.53
2023-03-14T01:19:33.836Z,7.46
2023-03-14T01:27:06.901Z,7.24
2023-03-14T01:30:52.449Z,7.17
2023-03-14T01:34:44.366Z,7.12
2023-03-14T01:46:57.215Z,6.78
2023-03-14T01:50:35.675Z,6.70
2023-03-14T01:54:26.809Z,6.65
2023-03-14T01:58:06.301Z,6.68
2023-03-14T02:01:45.640Z,6.89
2023-03-14T02:05:57.836Z,6.90
2023-03-14T02:17:55.550Z,6.91
2023-03-14T02:26:05.206Z,6.92
2023-03-14T02:30:29.472Z,6.78
2023-03-14T02:33:55.231Z,6.92
2023-03-14T02:37:22.889Z,6.87
2023-03-14T02:41:20.551Z,6.93
2023-03-14T02:48:56.982Z,7.03
2023-03-14T02:53:23.594Z,7.15
2023-03-14T03:05:27.814Z,7.15
2023-03-14T03:09:15.497Z,7.16
2023-03-14T03:12:52.768Z,7.16
2023-03-14T03:17:05.607Z,7.21
2023-03-14T03:24:34.683Z,7.13
2023-03-14T03:28:14.779Z,7.03
2023-03-14T03:31:55.286Z,6.90
2023-03-14T03:35:50.298Z,6.96
2023-03-14T03:47:39.281Z,6.82
2023-03-14T03:51:17.723Z,6.82
2023-03-14T03:54:53.686Z,6.90
2023-03-14T04:02:23.755Z,6.81
2023-03-14T04:06:04.674Z,6.57
2023-03-14T04:09:50.065Z,6.38
2023-03-14T04:13:26.121Z,6.11
2023-03-14T04:21:21.659Z,5.95
2023-03-14T04:25:12.593Z,5.71
2023-03-14T04:28:50.996Z,5.59
2023-03-14T04:32:26.195Z,5.58
2023-03-14T04:36:01.578Z,6.05
2023-03-14T04:39:46.334Z,6.29
2023-03-14T04:47:15.506Z,6.64
2023-03-14T04:50:52.281Z,6.73
2023-03-14T04:54:28.584Z,6.71
2023-03-14T05:11:22.849Z,6.59
2023-03-14T05:15:12.690Z,6.54
2023-03-14T05:18:58.684Z,6.64
2023-03-14T05:22:49.550Z,6.78
2023-03-14T05:26:27.802Z,6.97
2023-03-14T05:30:18.629Z,7.10
2023-03-14T05:34:01.446Z,7.20
2023-03-14T05:37:39.638Z,7.23
2023-03-14T05:41:15.209Z,7.26
2023-03-14T05:45:09.067Z,7.40
2023-03-14T05:48:48.736Z,7.65
2023-03-14T05:52:24.427Z,7.79
2023-03-14T05:56:28.714Z,7.93
2023-03-14T06:03:57.383Z,8.24
2023-03-14T06:07:35.902Z,8.40
2023-03-14T06:11:13.628Z,8.62
2023-03-14T06:19:19.870Z,9.12
2023-03-14T06:23:08.732Z,9.34
2023-03-14T06:26:47.007Z,9.52
2023-03-14T06:33:58.663Z,10.01
2023-03-14T06:37:03.945Z,9.97
2023-03-14T06:40:08.759Z,10.00
2023-03-14T06:43:14.180Z,9.80
2023-03-14T06:46:17.911Z,10.01
2023-03-14T06:49:21.111Z,10.03
2023-03-14T06:52:28.618Z,10.11
2023-03-14T06:55:34.712Z,10.14
2023-03-14T06:59:11.010Z,10.16
2023-03-14T07:02:16.049Z,10.01
2023-03-14T07:05:19.301Z,10.15
2023-03-14T07:08:25.469Z,10.19
2023-03-14T07:11:35.700Z,10.32
2023-03-14T07:14:42.008Z,10.45
2023-03-14T07:17:55.469Z,10.51
2023-03-14T07:20:58.936Z,10.83
2023-03-14T07:24:02.001Z,11.03
2023-03-14T07:27:08.708Z,11.14
2023-03-14T07:30:15.484Z,11.27
2023-03-14T07:33:19.576Z,11.36
2023-03-14T07:36:25.319Z,11.70
2023-03-14T07:39:32.548Z,11.99
2023-03-14T07:42:36.904Z,11.94
2023-03-14T07:45:50.809Z,12.07
2023-03-14T07:48:55.885Z,12.46
2023-03-14T07:52:00.507Z,12.76
2023-03-14T07:55:07.728Z,12.50
2023-03-14T07:58:17.611Z,12.63
2023-03-14T08:01:23.176Z,12.89
2023-03-14T08:04:29.271Z,13.21
2023-03-14T08:08:06.656Z,13.35
2023-03-14T08:12:41.942Z,13.65
2023-03-14T08:15:49.510Z,13.78
2023-03-14T08:19:07.792Z,13.96
2023-03-14T08:22:24.814Z,14.25
2023-03-14T08:29:54.457Z,14.33
2023-03-14T08:33:06.423Z,14.52
2023-03-14T08:36:13.944Z,14.53
2023-03-14T08:40:00.931Z,14.83
2023-03-14T08:43:26.361Z,14.58
2023-03-14T08:46:46.141Z,14.77
2023-03-14T08:49:52.307Z,14.66
2023-03-14T08:53:26.398Z,14.56
2023-03-14T08:56:43.983Z,14.90
2023-03-14T09:00:36.777Z,14.89
2023-03-14T09:03:41.021Z,15.43
2023-03-14T09:07:09.617Z,15.58
2023-03-14T09:10:44.333Z,16.11
2023-03-14T09:14:11.653Z,16.15
2023-03-14T09:17:15.882Z,16.48
2023-03-14T09:20:21.566Z,16.55
2023-03-14T09:23:50.038Z,17.23
2023-03-14T09:27:13.435Z,17.40
2023-03-14T09:30:46.762Z,17.91
2023-03-14T09:33:50.556Z,18.34
2023-03-14T09:36:54.713Z,18.33
2023-03-14T09:40:33.630Z,18.12
2023-03-14T09:44:28.762Z,19.01
2023-03-14T09:48:25.689Z,18.96
2023-03-14T09:51:55.370Z,18.60
2023-03-14T09:55:04.368Z,18.88
2023-03-14T09:58:24.050Z,19.12
2023-03-14T10:01:32.881Z,19.24
2023-03-14T10:04:41.002Z,19.45
2023-03-14T10:07:45.976Z,19.65
2023-03-14T10:10:51.880Z,20.20
2023-03-14T10:14:13.805Z,19.53
2023-03-14T10:17:29.202Z,19.78
2023-03-14T10:20:45.576Z,19.94
2023-03-14T10:23:50.146Z,20.15
2023-03-14T10:27:07.157Z,20.01
2023-03-14T10:30:45.530Z,20.30
2023-03-14T10:34:05.843Z,20.43
2023-03-14T10:37:45.848Z,20.18
2023-03-14T10:40:52.639Z,20.07
2023-03-14T10:44:00.133Z,20.72
2023-03-14T10:47:33.583Z,20.41
2023-03-14T10:50:48.501Z,20.63
2023-03-14T10:54:03.916Z,19.72
2023-03-14T10:57:08.340Z,19.15
2023-03-14T11:00:18.253Z,19.30
2023-03-14T11:03:23.993Z,19.57
2023-03-14T11:06:27.213Z,19.74
2023-03-14T11:09:36.375Z,19.99
2023-03-14T11:13:07.962Z,20.13
2023-03-14T11:16:32.184Z,20.94
2023-03-14T11:20:12.130Z,20.41
2023-03-14T11:23:23.562Z,20.73
2023-03-14T11:26:33.725Z,21.15
2023-03-14T11:30:37.730Z,21.22
2023-03-14T11:34:00.220Z,20.44
2023-03-14T11:37:38.006Z,20.36
2023-03-14T11:41:00.016Z,19.61
2023-03-14T11:44:16.139Z,19.89
2023-03-14T11:47:24.498Z,19.35
2023-03-14T11:50:34.847Z,19.70
2023-03-14T11:53:44.549Z,19.71
2023-03-14T11:57:10.270Z,19.56
2023-03-14T12:00:25.688Z,19.62
2023-03-14T12:03:58.343Z,20.25
2023-03-14T12:07:17.416Z,20.24
2023-03-14T12:10:20.951Z,20.58
2023-03-14T12:13:30.695Z,19.88
2023-03-14T12:16:41.114Z,19.90
2023-03-14T12:20:22.570Z,19.97
2023-03-14T12:23:36.114Z,20.49
2023-03-14T12:26:53.091Z,19.94
2023-03-14T12:30:30.572Z,19.61
2023-03-14T12:34:02.438Z,19.38
2023-03-14T12:37:35.369Z,19.43
2023-03-14T12:41:00.125Z,19.32
2023-03-14T12:44:31.783Z,19.42
2023-03-14T12:47:38.510Z,19.32
2023-03-14T12:50:45.113Z,19.22
2023-03-14T12:58:28.512Z,18.90
2023-03-14T13:01:35.786Z,19.10
2023-03-14T13:05:05.883Z,19.10
2023-03-14T13:08:10.716Z,19.09
2023-03-14T13:11:27.892Z,18.83
2023-03-14T13:14:38.591Z,18.76
2023-03-14T13:17:49.538Z,18.63
2023-03-14T13:21:12.955Z,18.70
2023-03-14T13:24:27.300Z,18.70
2023-03-14T13:27:56.798Z,18.58
2023-03-14T13:31:02.146Z,18.43
2023-03-14T13:34:16.925Z,18.36
2023-03-14T13:37:41.652Z,18.25
2023-03-14T13:40:46.979Z,18.22
2023-03-14T13:43:51.945Z,18.11
2023-03-14T13:47:09.366Z,18.22
2023-03-14T13:50:34.618Z,18.19
2023-03-14T13:53:48.738Z,18.24
2023-03-14T13:57:05.054Z,18.31
2023-03-14T14:00:23.154Z,18.31
2023-03-14T14:03:33.558Z,18.32
2023-03-14T14:06:52.603Z,18.36
2023-03-14T14:09:56.568Z,18.51
2023-03-14T14:13:09.816Z,18.56
2023-03-14T14:16:35.214Z,18.55
2023-03-14T14:19:58.243Z,18.70
2023-03-14T14:23:12.201Z,18.35
2023-03-14T14:26:20.762Z,18.42
2023-03-14T14:30:19.733Z,18.46
2023-03-14T14:34:04.539Z,18.49
2023-03-14T14:37:49.265Z,18.70
2023-03-14T14:40:57.431Z,18.53
2023-03-14T14:44:38.943Z,18.29
2023-03-14T14:47:56.162Z,18.11
2023-03-14T14:51:05.027Z,18.12
2023-03-14T14:59:08.330Z,17.86
2023-03-14T15:03:01.029Z,17.66
2023-03-14T15:14:18.547Z,17.37
2023-03-14T15:18:20.936Z,17.15
2023-03-14T15:22:03.903Z,17.11
2023-03-14T15:25:53.942Z,16.82
2023-03-14T15:33:23.829Z,16.62
2023-03-14T15:44:39.295Z,16.39
2023-03-14T15:53:09.114Z,16.05
2023-03-14T15:57:02.432Z,15.92
2023-03-14T16:00:58.572Z,15.93
2023-03-14T16:04:45.820Z,15.97
2023-03-14T16:08:23.989Z,15.97
2023-03-14T23:32:51.188Z,9.18
2023-03-14T23:36:18.360Z,9.12
2023-03-14T23:39:50.471Z,9.10
2023-03-14T23:43:20.452Z,9.10
2023-03-14T23:47:00.639Z,9.03
2023-03-14T23:50:17.720Z,9.05
2023-03-14T23:53:37.416Z,9.05
2023-03-14T23:57:10.974Z,9.01
